Terminal Aerodrome Forecast
Issued by NWS

Home | Current Version | Previous Version | Text Only | Print | Product List | Glossary On
Versions: 1 2 3 4 5 6 7 8 9 10 11 12 13 14 15 16 17 18
643
FTUS44 KBMX 270614 AAA
TAFTOI
TAF AMD
KTOI 270614Z 2706/2806 15003KT 4SM BR BKN003
      TEMPO 2710/2713 00000KT 1SM BR OVC002
     FM271500 17005KT P6SM BKN015
     FM271700 19010KT P6SM SCT050 BKN250=

USA.gov is the U.S. government's official web portal to all federal, state and local government web resources and services.